Time;durP1;ratioP1;P1;durP2;ratioP2;P2;SDS_P1;SDS_P2;PMS_P1;PMS_P2;Temp;Humidity;BMP_temperature;BMP_pressure;BME280_temperature;BME280_humidity;BME280_pressure;Samples;Min_cycle;Max_cycle;Signal;HPM_P1;HPM_P2
2022/04/27 06:37:56;;;;;;;;;;;9.50;97.10;;;;;;4999392;28;19936;-83
2022/04/27 06:40:26;;;;;;;;;;;9.60;96.90;;;;;;4994050;28;19927;-84
2022/04/27 06:42:57;;;;;;;;;;;9.60;97.00;;;;;;4968115;28;19926;-82
2022/04/27 06:45:51;;;;;;;;;;;9.70;96.70;;;;;;4975855;28;20132;-83
2022/04/27 06:48:55;;;;;;;;;;;9.80;97.20;;;;;;4984708;28;19937;-83
2022/04/27 06:57:31;;;;;;;;;;;;;;;;;;;;;
2022/04/27 07:20:24;;;;;;;;;;;10.50;93.60;;;;;;5149457;27;20382;-90
2022/04/27 07:23:04;;;;;;;;;;;10.40;93.70;;;;;;5134670;27;19932;-89
2022/04/27 07:25:35;;;;;;;;;;;10.50;93.40;;;;;;5114591;27;19934;-89
2022/04/27 07:28:12;;;;;;;;;;;10.90;93.30;;;;;;5131254;27;19927;-89
2022/04/27 07:30:40;;;;;;;;;;;10.60;93.20;;;;;;5128477;27;19934;-90
2022/04/27 07:33:08;;;;;;;;;;;10.50;93.00;;;;;;5096226;28;19931;-89
2022/04/27 07:35:40;;;;;;;;;;;10.60;93.20;;;;;;5101343;28;19928;-88
2022/04/27 07:38:12;;;;;;;;;;;10.60;93.40;;;;;;5090508;28;19928;-89
2022/04/27 07:40:52;;;;;;;;;;;10.60;93.30;;;;;;5100344;28;19924;-88
2022/04/27 07:43:21;;;;;;;;;;;10.70;92.90;;;;;;5091032;28;19931;-89
2022/04/27 07:45:51;;;;;;;;;;;10.70;93.20;;;;;;5121460;28;19923;-88
2022/04/27 07:48:24;;;;;;;;;;;10.80;93.30;;;;;;5118761;28;19934;-90
2022/04/27 07:50:53;;;;;;;;;;;10.80;93.20;;;;;;5138947;27;19927;-88
2022/04/27 07:53:23;;;;;;;;;;;10.80;93.30;;;;;;5109107;27;20297;-88
2022/04/27 07:55:54;;;;;;;;;;;10.90;93.50;;;;;;5101158;28;19924;-91
2022/04/27 07:58:24;;;;;;;;;;;10.90;93.30;;;;;;5116172;27;19923;-89
2022/04/27 08:00:55;;;;;;;;;;;11.00;93.30;;;;;;5117985;28;20001;-87
2022/04/27 08:03:23;;;;;;;;;;;11.00;93.50;;;;;;5093436;27;19937;-88
2022/04/27 08:05:51;;;;;;;;;;;11.10;93.10;;;;;;5121051;27;19930;-92
2022/04/27 08:08:21;;;;;;;;;;;11.10;92.90;;;;;;5127813;28;19924;-91
2022/04/27 08:10:55;;;;;;;;;;;11.10;92.90;;;;;;5093605;28;19924;-91
2022/04/27 08:13:23;;;;;;;;;;;11.20;93.00;;;;;;5123096;28;19947;-93
2022/04/27 08:15:51;;;;;;;;;;;11.30;93.10;;;;;;5102059;28;19932;-91
2022/04/27 08:18:20;;;;;;;;;;;11.30;92.80;;;;;;5069004;28;19930;-91
2022/04/27 08:23:36;;;;;;;;;;;11.40;92.60;;;;;;5117874;22;19929;-89
2022/04/27 08:26:04;;;;;;;;;;;11.50;92.10;;;;;;5058029;28;19924;-89
2022/04/27 08:28:37;;;;;;;;;;;11.50;91.80;;;;;;5052476;28;19936;-90
2022/04/27 08:31:06;;;;;;;;;;;11.50;92.00;;;;;;5026226;28;20455;-90
2022/04/27 08:33:34;;;;;;;;;;;11.60;91.80;;;;;;5073206;28;19936;-90
2022/04/27 08:36:03;;;;;;;;;;;11.60;91.70;;;;;;5070155;28;19939;-88
2022/04/27 08:38:55;;;;;;;;;;;11.70;91.60;;;;;;5060710;28;19935;-89
2022/04/27 08:41:28;;;;;;;;;;;11.60;91.50;;;;;;5044427;28;19925;-88
2022/04/27 08:43:58;;;;;;;;;;;11.80;91.40;;;;;;5074638;28;19925;-91
2022/04/27 08:46:37;;;;;;;;;;;11.80;91.30;;;;;;5066148;28;19921;-90
2022/04/27 08:49:14;;;;;;;;;;;11.90;90.90;;;;;;5063026;28;19932;-90
2022/04/27 08:51:43;;;;;;;;;;;12.20;90.80;;;;;;5065047;28;19925;-90
2022/04/27 08:54:23;;;;;;;;;;;11.80;90.50;;;;;;5074472;28;19924;-91
2022/04/27 08:57:12;;;;;;;;;;;11.90;90.30;;;;;;5053254;28;19932;-88
2022/04/27 08:59:40;;;;;;;;;;;11.80;90.30;;;;;;5058275;28;20284;-87
2022/04/27 09:02:28;;;;;;;;;;;11.80;90.50;;;;;;5075298;28;19933;-89
2022/04/27 09:05:15;;;;;;;;;;;11.90;90.60;;;;;;5057066;28;19925;-89
2022/04/27 09:07:47;;;;;;;;;;;11.90;90.70;;;;;;5082414;28;20406;-92
2022/04/27 09:10:23;;;;;;;;;;;12.00;90.50;;;;;;5047369;28;19929;-89
2022/04/27 09:12:55;;;;;;;;;;;12.00;90.60;;;;;;5054594;28;19925;-88
2022/04/27 09:15:26;;;;;;;;;;;12.00;90.50;;;;;;5048354;28;19940;-89
2022/04/27 09:20:50;;;;;;;;;;;12.20;90.20;;;;;;5058770;28;20178;-90
2022/04/27 09:23:40;;;;;;;;;;;12.10;89.90;;;;;;5060698;28;19925;-90
2022/04/27 09:26:19;;;;;;;;;;;12.10;89.60;;;;;;5060003;28;19955;-89
2022/04/27 09:28:53;;;;;;;;;;;12.10;89.70;;;;;;5060954;28;19936;-90
2022/04/27 09:31:34;;;;;;;;;;;12.10;89.40;;;;;;5059018;28;19932;-88
2022/04/27 09:34:27;;;;;;;;;;;12.10;89.70;;;;;;5052798;28;19936;-87
2022/04/27 09:37:01;;;;;;;;;;;12.20;90.00;;;;;;5056026;28;19928;-89
2022/04/27 09:39:29;;;;;;;;;;;12.10;89.70;;;;;;5056949;28;19932;-90
2022/04/27 09:42:04;;;;;;;;;;;12.10;90.10;;;;;;5051841;28;19925;-88
2022/04/27 09:44:36;;;;;;;;;;;12.10;89.90;;;;;;5050759;28;19925;-86
2022/04/27 09:47:04;;;;;;;;;;;12.10;90.10;;;;;;5039046;28;19928;-89
2022/04/27 09:49:34;;;;;;;;;;;12.10;90.00;;;;;;5055195;28;19932;-88
2022/04/27 09:52:03;;;;;;;;;;;12.10;90.00;;;;;;5051484;28;19936;-85
2022/04/27 09:54:32;;;;;;;;;;;12.20;90.10;;;;;;5050872;28;20364;-89
2022/04/27 09:57:06;;;;;;;;;;;12.20;89.90;;;;;;5071835;28;19933;-89
2022/04/27 09:59:37;;;;;;;;;;;12.20;89.00;;;;;;5062443;28;19925;-88
2022/04/27 10:02:15;;;;;;;;;;;12.20;89.40;;;;;;5056398;28;20067;-89
2022/04/27 10:04:45;;;;;;;;;;;12.20;89.50;;;;;;4684024;28;10000003;-88
2022/04/27 10:07:13;;;;;;;;;;;12.20;89.30;;;;;;5036538;28;20350;-88
2022/04/27 10:09:41;;;;;;;;;;;12.10;88.20;;;;;;5067115;28;19935;-89
2022/04/27 10:12:13;;;;;;;;;;;12.10;88.50;;;;;;5037647;28;19925;-87
2022/04/27 10:14:41;;;;;;;;;;;12.10;87.50;;;;;;5050764;28;20214;-89
2022/04/27 10:17:10;;;;;;;;;;;12.30;88.80;;;;;;5038551;28;19933;-89
2022/04/27 10:19:43;;;;;;;;;;;12.20;88.10;;;;;;5058131;28;20292;-90
2022/04/27 10:22:25;;;;;;;;;;;12.20;88.80;;;;;;5062048;28;19931;-90
2022/04/27 10:25:06;;;;;;;;;;;12.20;88.70;;;;;;5044194;28;19931;-91
2022/04/27 10:27:39;;;;;;;;;;;12.20;87.40;;;;;;5027045;28;19929;-91
2022/04/27 10:30:17;;;;;;;;;;;12.50;87.30;;;;;;5027354;28;19929;-89
2022/04/27 10:32:44;;;;;;;;;;;12.20;87.70;;;;;;5047642;28;20322;-90
2022/04/27 10:35:19;;;;;;;;;;;12.20;87.50;;;;;;5045508;28;19936;-89
2022/04/27 10:37:57;;;;;;;;;;;12.10;87.90;;;;;;5058086;28;19996;-88
2022/04/27 10:40:31;;;;;;;;;;;12.10;88.40;;;;;;5059498;28;19925;-88
2022/04/27 10:43:23;;;;;;;;;;;12.10;88.70;;;;;;5046836;28;19932;-87
2022/04/27 10:45:53;;;;;;;;;;;12.10;89.60;;;;;;5079054;28;19925;-89
2022/04/27 10:48:45;;;;;;;;;;;12.10;89.30;;;;;;5047039;28;19930;-88
2022/04/27 10:51:15;;;;;;;;;;;12.00;89.70;;;;;;5069710;28;19936;-88
2022/04/27 10:53:43;;;;;;;;;;;11.90;90.10;;;;;;5058205;28;19936;-90
2022/04/27 10:56:38;;;;;;;;;;;11.80;90.30;;;;;;5073905;28;19928;-90
2022/04/27 10:59:27;;;;;;;;;;;11.90;90.70;;;;;;5063194;28;19933;-89
2022/04/27 11:01:59;;;;;;;;;;;11.90;90.70;;;;;;5041397;28;19925;-88
2022/04/27 11:04:55;;;;;;;;;;;11.90;90.60;;;;;;5061123;28;19948;-91
2022/04/27 11:07:30;;;;;;;;;;;12.00;90.60;;;;;;5042068;28;19925;-90
2022/04/27 11:10:20;;;;;;;;;;;12.10;90.90;;;;;;5050769;28;19933;-89
2022/04/27 11:12:55;;;;;;;;;;;12.20;90.50;;;;;;5049675;28;19925;-90
2022/04/27 11:15:31;;;;;;;;;;;12.20;90.20;;;;;;5043599;28;19932;-86
2022/04/27 11:18:01;;;;;;;;;;;12.40;90.40;;;;;;5057047;28;19939;-89
2022/04/27 11:20:47;;;;;;;;;;;12.30;90.40;;;;;;5060242;28;20300;-89
2022/04/27 11:23:23;;;;;;;;;;;12.40;90.70;;;;;;5054078;28;19925;-87
2022/04/27 11:25:52;;;;;;;;;;;12.50;90.60;;;;;;5062292;28;19921;-88
2022/04/27 11:28:20;;;;;;;;;;;12.60;90.60;;;;;;5051291;28;19928;-87
2022/04/27 11:30:48;;;;;;;;;;;12.70;90.60;;;;;;5067991;28;19927;-88
2022/04/27 11:33:18;;;;;;;;;;;12.70;90.60;;;;;;5066553;28;19926;-91
2022/04/27 11:35:47;;;;;;;;;;;12.70;90.70;;;;;;5063138;28;19919;-90
2022/04/27 11:38:21;;;;;;;;;;;12.70;90.70;;;;;;5067993;28;19929;-90
2022/04/27 11:40:51;;;;;;;;;;;12.80;90.50;;;;;;5045533;28;19925;-87
2022/04/27 11:44:32;;;;;;;;;;;12.90;90.60;;;;;;5043572;28;20272;-88
2022/04/27 11:50:05;;;;;;;;;;;13.10;90.20;;;;;;5060601;22;19927;-86
2022/04/27 11:53:02;;;;;;;;;;;13.10;90.00;;;;;;5056222;28;19929;-89
2022/04/27 11:55:51;;;;;;;;;;;12.40;89.10;;;;;;5028540;28;19930;-87
2022/04/27 11:58:54;;;;;;;;;;;13.30;89.80;;;;;;5041538;28;19925;-89
2022/04/27 12:01:51;;;;;;;;;;;13.10;89.70;;;;;;5067064;23;19928;-89
2022/04/27 12:04:23;;;;;;;;;;;13.30;89.90;;;;;;5033000;28;19929;-89
2022/04/27 12:06:54;;;;;;;;;;;13.20;89.80;;;;;;5053138;28;19936;-90
2022/04/27 12:09:31;;;;;;;;;;;13.20;89.50;;;;;;5050466;28;19929;-90
2022/04/27 12:12:11;;;;;;;;;;;13.40;89.00;;;;;;5063375;28;20300;-89
2022/04/27 12:14:41;;;;;;;;;;;13.20;89.50;;;;;;5059841;28;19925;-88
2022/04/27 12:17:34;;;;;;;;;;;13.10;88.70;;;;;;5044062;28;19925;-88
2022/04/27 12:20:16;;;;;;;;;;;13.10;88.80;;;;;;5043388;28;19940;-90
2022/04/27 12:22:58;;;;;;;;;;;13.10;89.10;;;;;;5063942;28;19924;-90
2022/04/27 12:25:43;;;;;;;;;;;13.00;89.30;;;;;;5033863;28;19909;-89
2022/04/27 12:28:12;;;;;;;;;;;12.60;89.00;;;;;;5066663;28;19931;-88
2022/04/27 12:30:51;;;;;;;;;;;12.90;89.70;;;;;;5071372;28;19913;-90
2022/04/27 12:33:29;;;;;;;;;;;13.00;90.10;;;;;;5067641;28;19928;-90
2022/04/27 12:38:54;;;;;;;;;;;12.80;89.00;;;;;;5073271;28;20509;-90
2022/04/27 12:41:31;;;;;;;;;;;12.80;89.80;;;;;;5054486;28;19924;-90
2022/04/27 12:44:05;;;;;;;;;;;12.80;89.80;;;;;;5049725;28;19925;-90
2022/04/27 12:47:12;;;;;;;;;;;12.80;89.60;;;;;;5046627;28;19929;-89
2022/04/27 12:49:41;;;;;;;;;;;12.80;89.10;;;;;;5016591;28;19929;-90
2022/04/27 12:52:32;;;;;;;;;;;12.80;89.50;;;;;;5052396;28;19929;-90
2022/04/27 12:55:10;;;;;;;;;;;12.70;89.40;;;;;;5037314;28;19925;-92
2022/04/27 12:57:46;;;;;;;;;;;12.70;89.40;;;;;;5034422;28;19925;-90
2022/04/27 13:00:14;;;;;;;;;;;12.70;89.20;;;;;;5045937;28;20335;-89
2022/04/27 13:02:42;;;;;;;;;;;12.70;89.30;;;;;;5074983;28;19929;-88
2022/04/27 13:05:10;;;;;;;;;;;12.70;89.10;;;;;;5086036;28;20307;-92
2022/04/27 13:07:42;;;;;;;;;;;12.60;88.30;;;;;;5071919;28;19931;-90
2022/04/27 13:13:00;;;;;;;;;;;12.70;87.60;;;;;;5081095;28;19924;-92
2022/04/27 13:15:38;;;;;;;;;;;12.80;87.90;;;;;;5057068;28;19931;-94
2022/04/27 13:18:17;;;;;;;;;;;12.80;88.00;;;;;;5060891;28;19932;-92
2022/04/27 13:20:52;;;;;;;;;;;12.80;88.50;;;;;;5066378;28;19928;-88
2022/04/27 13:23:21;;;;;;;;;;;12.90;87.20;;;;;;5060734;28;19928;-92
2022/04/27 13:25:49;;;;;;;;;;;13.00;87.30;;;;;;5058206;28;19924;-87
2022/04/27 13:28:17;;;;;;;;;;;12.90;87.30;;;;;;5060914;28;19928;-90
2022/04/27 13:30:45;;;;;;;;;;;12.90;87.20;;;;;;5069463;28;19925;-89
2022/04/27 13:33:14;;;;;;;;;;;12.80;87.10;;;;;;5075005;28;19935;-89
2022/04/27 13:35:42;;;;;;;;;;;12.80;87.40;;;;;;5074460;28;19928;-85
2022/04/27 13:38:10;;;;;;;;;;;12.80;87.50;;;;;;5083978;28;19928;-90
2022/04/27 13:40:38;;;;;;;;;;;12.80;87.20;;;;;;5062164;28;19924;-88
2022/04/27 13:43:06;;;;;;;;;;;12.80;87.80;;;;;;5074900;28;19928;-88
2022/04/27 13:45:33;;;;;;;;;;;12.80;87.60;;;;;;5076722;28;19925;-88
2022/04/27 13:48:02;;;;;;;;;;;12.70;87.10;;;;;;5077918;28;19923;-88
2022/04/27 13:50:30;;;;;;;;;;;12.60;87.60;;;;;;5077083;28;19932;-87
2022/04/27 13:52:58;;;;;;;;;;;12.90;87.90;;;;;;5073866;28;19924;-87
2022/04/27 13:55:26;;;;;;;;;;;12.40;87.80;;;;;;5075251;28;20406;-91
2022/04/27 13:57:56;;;;;;;;;;;12.30;87.90;;;;;;5077991;28;20398;-90
2022/04/27 14:00:24;;;;;;;;;;;12.30;88.10;;;;;;5076064;28;20360;-91
2022/04/27 14:02:54;;;;;;;;;;;11.90;87.60;;;;;;5060506;28;19928;-89
2022/04/27 14:05:24;;;;;;;;;;;12.40;87.40;;;;;;5077215;28;19951;-89
2022/04/27 14:07:52;;;;;;;;;;;12.40;88.40;;;;;;5073917;28;20137;-86
2022/04/27 14:10:20;;;;;;;;;;;12.40;88.30;;;;;;5056469;28;19928;-87
2022/04/27 14:15:38;;;;;;;;;;;12.30;88.20;;;;;;5078532;28;19928;-86
2022/04/27 14:18:15;;;;;;;;;;;12.70;87.90;;;;;;5074974;28;19924;-86
2022/04/27 14:20:44;;;;;;;;;;;12.80;87.20;;;;;;5078292;28;19931;-86
2022/04/27 14:23:14;;;;;;;;;;;12.90;87.00;;;;;;5064951;28;19932;-87
2022/04/27 14:25:43;;;;;;;;;;;12.80;85.60;;;;;;5081544;28;19927;-86
2022/04/27 14:28:11;;;;;;;;;;;12.90;87.30;;;;;;5069457;28;20009;-86
2022/04/27 14:30:41;;;;;;;;;;;13.30;89.00;;;;;;5063740;28;19928;-87
2022/04/27 14:33:10;;;;;;;;;;;12.80;89.80;;;;;;5099098;28;19924;-87
2022/04/27 14:35:39;;;;;;;;;;;12.70;90.30;;;;;;5080075;28;20418;-88
2022/04/27 14:38:07;;;;;;;;;;;12.60;90.70;;;;;;5089315;28;20398;-87
2022/04/27 14:40:35;;;;;;;;;;;12.60;90.90;;;;;;5091061;28;20318;-89
2022/04/27 14:43:03;;;;;;;;;;;12.60;90.80;;;;;;5073419;28;19932;-87
2022/04/27 14:45:37;;;;;;;;;;;12.50;91.20;;;;;;5075555;28;19928;-87
2022/04/27 14:48:05;;;;;;;;;;;12.50;91.40;;;;;;5075357;28;19928;-88
2022/04/27 14:50:34;;;;;;;;;;;12.50;91.10;;;;;;5053804;28;19932;-86
2022/04/27 14:53:03;;;;;;;;;;;12.50;91.30;;;;;;5088690;28;19931;-89
2022/04/27 14:55:31;;;;;;;;;;;12.60;91.50;;;;;;4735459;28;10000554;-89
2022/04/27 14:58:00;;;;;;;;;;;12.70;91.60;;;;;;5071414;28;19924;-89
2022/04/27 15:00:28;;;;;;;;;;;12.70;91.60;;;;;;5057291;28;19932;-88
2022/04/27 15:02:55;;;;;;;;;;;12.70;91.50;;;;;;5089367;28;19924;-90
2022/04/27 15:05:23;;;;;;;;;;;12.60;91.40;;;;;;5077726;28;19924;-89
2022/04/27 15:07:52;;;;;;;;;;;12.70;91.20;;;;;;5058136;28;19928;-87
2022/04/27 15:10:24;;;;;;;;;;;12.70;91.20;;;;;;5069263;28;19935;-89
2022/04/27 15:12:56;;;;;;;;;;;12.60;91.00;;;;;;5072760;28;19939;-88
2022/04/27 15:15:25;;;;;;;;;;;12.60;91.00;;;;;;5094387;28;19932;-89
2022/04/27 15:17:58;;;;;;;;;;;12.50;90.90;;;;;;5073428;28;20236;-87
2022/04/27 15:23:15;;;;;;;;;;;12.40;91.30;;;;;;5079470;28;19931;-87
2022/04/27 15:25:43;;;;;;;;;;;12.30;91.20;;;;;;5069647;28;19935;-87
2022/04/27 15:28:12;;;;;;;;;;;12.30;91.40;;;;;;5052116;28;20246;-87
2022/04/27 15:30:40;;;;;;;;;;;12.30;91.50;;;;;;5070951;28;19939;-87
2022/04/27 15:33:14;;;;;;;;;;;12.30;91.70;;;;;;5053622;28;19924;-89
2022/04/27 15:35:44;;;;;;;;;;;12.30;91.60;;;;;;5088004;28;19932;-88
2022/04/27 15:38:12;;;;;;;;;;;12.30;91.70;;;;;;5053955;28;19932;-87
2022/04/27 15:40:49;;;;;;;;;;;12.20;91.60;;;;;;5091643;28;19924;-87
2022/04/27 15:43:18;;;;;;;;;;;11.10;91.40;;;;;;5055137;28;19928;-87
2022/04/27 15:46:07;;;;;;;;;;;11.90;92.10;;;;;;5097366;28;19915;-89
2022/04/27 15:48:35;;;;;;;;;;;11.90;92.40;;;;;;5063645;28;19932;-88
2022/04/27 15:51:04;;;;;;;;;;;11.90;92.40;;;;;;5068686;28;19928;-87
2022/04/27 15:53:36;;;;;;;;;;;11.90;92.30;;;;;;5083036;28;20111;-86
2022/04/27 15:56:05;;;;;;;;;;;11.90;92.00;;;;;;5100674;28;19924;-86
2022/04/27 15:58:34;;;;;;;;;;;11.90;92.00;;;;;;5075279;28;20383;-86
2022/04/27 16:01:02;;;;;;;;;;;11.90;92.10;;;;;;5072829;28;19928;-86
2022/04/27 16:03:30;;;;;;;;;;;11.90;92.10;;;;;;5094931;28;19939;-86
2022/04/27 16:05:59;;;;;;;;;;;11.90;92.30;;;;;;5096953;28;19924;-88
2022/04/27 16:08:28;;;;;;;;;;;11.90;92.10;;;;;;5054204;28;19928;-89
2022/04/27 16:10:57;;;;;;;;;;;11.80;92.10;;;;;;5067691;28;19928;-88
2022/04/27 16:13:25;;;;;;;;;;;11.90;92.10;;;;;;5079513;28;20770;-89
2022/04/27 16:15:57;;;;;;;;;;;11.90;92.10;;;;;;5084509;28;19932;-87
2022/04/27 16:18:30;;;;;;;;;;;11.90;92.00;;;;;;5099099;28;19924;-88
2022/04/27 16:23:43;;;;;;;;;;;12.00;91.80;;;;;;5083203;28;19938;-89
2022/04/27 16:26:16;;;;;;;;;;;12.10;91.80;;;;;;5076518;28;19928;-90
2022/04/27 16:28:47;;;;;;;;;;;12.10;91.20;;;;;;5084148;28;19931;-90
2022/04/27 16:31:22;;;;;;;;;;;12.20;91.20;;;;;;5055970;28;19928;-91
2022/04/27 16:33:55;;;;;;;;;;;10.80;90.60;;;;;;5066918;28;19939;-90
2022/04/27 16:36:25;;;;;;;;;;;12.20;90.90;;;;;;5091175;28;19924;-91
2022/04/27 16:38:54;;;;;;;;;;;12.30;90.40;;;;;;5048064;28;19924;-89
2022/04/27 16:41:27;;;;;;;;;;;12.30;90.30;;;;;;5060026;28;19952;-91
2022/04/27 16:43:59;;;;;;;;;;;12.30;89.60;;;;;;5060575;28;19933;-90
2022/04/27 16:46:31;;;;;;;;;;;12.30;90.10;;;;;;5054642;28;20092;-90
2022/04/27 16:49:01;;;;;;;;;;;12.40;88.80;;;;;;5063961;28;19935;-91
2022/04/27 16:51:29;;;;;;;;;;;12.40;89.70;;;;;;5067034;28;20240;-91
2022/04/27 16:54:08;;;;;;;;;;;12.30;90.00;;;;;;5068381;28;19924;-91
2022/04/27 16:56:53;;;;;;;;;;;12.30;90.10;;;;;;5067210;28;19924;-90
2022/04/27 16:59:23;;;;;;;;;;;12.20;91.00;;;;;;5058151;28;20378;-89
2022/04/27 17:01:52;;;;;;;;;;;12.10;91.40;;;;;;5045913;28;19909;-91
2022/04/27 17:04:46;;;;;;;;;;;12.00;91.90;;;;;;5054750;28;19935;-90
2022/04/27 17:07:16;;;;;;;;;;;12.00;91.60;;;;;;5074319;28;19932;-91
2022/04/27 17:09:47;;;;;;;;;;;11.90;92.00;;;;;;5043743;28;19925;-89
2022/04/27 17:12:15;;;;;;;;;;;11.80;92.10;;;;;;5023109;28;19966;-90
2022/04/27 17:14:43;;;;;;;;;;;11.80;92.20;;;;;;5044531;28;19925;-88
2022/04/27 17:17:11;;;;;;;;;;;11.90;92.10;;;;;;5066314;28;19928;-88
2022/04/27 17:19:40;;;;;;;;;;;12.00;91.90;;;;;;5081470;28;19955;-87
2022/04/27 17:22:10;;;;;;;;;;;12.20;91.90;;;;;;5050702;28;19940;-87
2022/04/27 17:24:39;;;;;;;;;;;12.30;91.60;;;;;;5053177;28;21239;-85
2022/04/27 17:27:30;;;;;;;;;;;12.40;91.30;;;;;;5049309;28;19971;-87
2022/04/27 17:30:05;;;;;;;;;;;12.40;91.10;;;;;;5063547;28;20320;-86
2022/04/27 17:32:35;;;;;;;;;;;12.50;90.90;;;;;;5051660;28;19925;-87
2022/04/27 17:35:02;;;;;;;;;;;12.50;90.90;;;;;;5051502;28;19925;-86
2022/04/27 17:37:30;;;;;;;;;;;12.50;90.90;;;;;;5057409;28;19932;-87
2022/04/27 17:39:59;;;;;;;;;;;12.40;90.90;;;;;;5058067;28;19925;-86
2022/04/27 17:42:36;;;;;;;;;;;12.40;91.00;;;;;;5062649;28;19925;-86
2022/04/27 17:45:07;;;;;;;;;;;12.20;91.40;;;;;;5052628;28;19936;-86
2022/04/27 17:47:37;;;;;;;;;;;12.20;91.20;;;;;;5039506;28;19939;-87
2022/04/27 17:50:08;;;;;;;;;;;12.10;91.30;;;;;;5057135;28;19928;-86
2022/04/27 17:52:36;;;;;;;;;;;12.10;92.00;;;;;;5053136;28;19936;-86
2022/04/27 17:55:09;;;;;;;;;;;12.00;92.20;;;;;;5054486;28;19953;-86
2022/04/27 17:57:58;;;;;;;;;;;12.00;92.20;;;;;;5055474;28;19939;-87
2022/04/27 18:00:27;;;;;;;;;;;11.90;92.60;;;;;;5048871;28;19932;-86
2022/04/27 18:02:56;;;;;;;;;;;11.70;92.70;;;;;;5053462;28;19936;-87
2022/04/27 18:05:24;;;;;;;;;;;11.70;92.70;;;;;;5069199;28;19924;-86
2022/04/27 18:07:53;;;;;;;;;;;11.70;92.80;;;;;;5052890;28;20395;-88
2022/04/27 18:10:23;;;;;;;;;;;11.60;92.90;;;;;;5070860;28;20490;-85
2022/04/27 18:12:54;;;;;;;;;;;9.90;92.50;;;;;;5038977;28;19933;-86
2022/04/27 18:15:22;;;;;;;;;;;11.50;92.90;;;;;;5067964;28;19940;-86
2022/04/27 18:17:53;;;;;;;;;;;11.40;92.80;;;;;;5068845;28;19933;-88
2022/04/27 18:20:23;;;;;;;;;;;11.50;93.10;;;;;;5066045;28;20368;-87
2022/04/27 18:22:57;;;;;;;;;;;11.40;92.90;;;;;;5073158;28;20323;-88
2022/04/27 18:25:31;;;;;;;;;;;11.40;93.00;;;;;;5071079;28;20299;-86
2022/04/27 18:27:59;;;;;;;;;;;11.40;93.00;;;;;;5069663;28;19924;-86
2022/04/27 18:30:30;;;;;;;;;;;11.40;93.00;;;;;;5078290;28;19936;-85
2022/04/27 18:33:00;;;;;;;;;;;11.30;92.90;;;;;;5086777;28;19924;-86
2022/04/27 18:35:28;;;;;;;;;;;11.30;93.10;;;;;;5082568;28;19912;-85
2022/04/27 18:37:56;;;;;;;;;;;11.30;93.20;;;;;;5087132;28;19928;-85
2022/04/27 18:40:25;;;;;;;;;;;11.20;93.20;;;;;;5077467;28;19931;-88
2022/04/27 18:42:55;;;;;;;;;;;10.20;93.00;;;;;;5071717;28;19959;-86
2022/04/27 18:51:15;;;;;;;;;;;11.00;93.50;;;;;;5085086;28;19935;-88
2022/04/27 18:53:47;;;;;;;;;;;10.80;93.90;;;;;;5064869;28;19937;-88
2022/04/27 18:56:16;;;;;;;;;;;10.80;93.80;;;;;;5074192;28;19932;-88
2022/04/27 18:58:50;;;;;;;;;;;10.70;93.80;;;;;;5053061;28;19924;-88
2022/04/27 19:01:18;;;;;;;;;;;10.60;93.80;;;;;;5071456;28;19924;-86
2022/04/27 19:03:50;;;;;;;;;;;10.50;94.40;;;;;;5066335;28;19939;-87
2022/04/27 19:06:20;;;;;;;;;;;9.70;94.00;;;;;;5071848;28;19925;-90
2022/04/27 19:08:51;;;;;;;;;;;10.40;94.00;;;;;;5068431;28;19925;-86
2022/04/27 19:11:20;;;;;;;;;;;10.30;94.70;;;;;;5072404;28;19928;-85
2022/04/27 19:13:49;;;;;;;;;;;10.20;95.00;;;;;;5071185;28;19939;-88
2022/04/27 19:16:18;;;;;;;;;;;10.20;94.50;;;;;;5070770;28;19929;-86
2022/04/27 19:18:48;;;;;;;;;;;10.10;94.60;;;;;;5039944;28;20170;-86
2022/04/27 19:21:19;;;;;;;;;;;10.00;94.70;;;;;;5069461;28;19932;-87
2022/04/27 19:23:47;;;;;;;;;;;9.90;95.30;;;;;;5057517;28;19932;-88
2022/04/27 19:26:16;;;;;;;;;;;9.80;94.90;;;;;;5074232;28;19929;-87
2022/04/27 19:28:47;;;;;;;;;;;9.80;94.70;;;;;;5064446;28;19939;-87
2022/04/27 19:31:16;;;;;;;;;;;9.70;94.40;;;;;;5048061;28;19958;-88
2022/04/27 19:33:45;;;;;;;;;;;11.50;95.30;;;;;;5068046;28;19928;-87
2022/04/27 19:36:13;;;;;;;;;;;9.60;94.80;;;;;;5060236;28;19924;-86
2022/04/27 19:38:40;;;;;;;;;;;9.60;95.10;;;;;;5064486;28;20596;-86
2022/04/27 19:41:08;;;;;;;;;;;9.50;95.20;;;;;;5068985;28;19943;-88
2022/04/27 19:43:37;;;;;;;;;;;9.40;94.90;;;;;;5050772;28;19928;-87
2022/04/27 19:46:17;;;;;;;;;;;9.30;94.70;;;;;;4720436;28;10000661;-87
2022/04/27 19:48:46;;;;;;;;;;;9.30;94.80;;;;;;5051005;28;19928;-88
2022/04/27 19:51:23;;;;;;;;;;;9.10;94.90;;;;;;5067391;28;19929;-89
2022/04/27 19:53:51;;;;;;;;;;;8.90;95.30;;;;;;5040478;28;19936;-88
2022/04/27 19:56:19;;;;;;;;;;;9.10;95.20;;;;;;5055003;28;19929;-88
2022/04/27 19:58:52;;;;;;;;;;;9.10;95.00;;;;;;5064154;28;20148;-86
2022/04/27 20:01:39;;;;;;;;;;;9.00;95.00;;;;;;5049258;28;19932;-87
2022/04/27 20:04:07;;;;;;;;;;;9.00;95.20;;;;;;5068187;28;19943;-87
2022/04/27 20:06:37;;;;;;;;;;;8.90;94.90;;;;;;5070164;28;19925;-90
2022/04/27 20:09:09;;;;;;;;;;;8.90;94.80;;;;;;5067374;28;20524;-89
2022/04/27 20:11:37;;;;;;;;;;;8.80;94.90;;;;;;5051978;28;19932;-88
2022/04/27 20:14:06;;;;;;;;;;;8.80;95.10;;;;;;5072724;28;19929;-87
2022/04/27 20:16:34;;;;;;;;;;;8.80;95.00;;;;;;5076320;28;19932;-88
2022/04/27 20:19:03;;;;;;;;;;;8.70;95.00;;;;;;5055615;28;20442;-87
2022/04/27 20:21:31;;;;;;;;;;;8.70;95.10;;;;;;5067448;28;20432;-86
2022/04/27 20:24:00;;;;;;;;;;;8.70;95.50;;;;;;5073711;28;19939;-88
2022/04/27 20:26:28;;;;;;;;;;;8.80;95.20;;;;;;5068469;28;19940;-88
2022/04/27 20:28:56;;;;;;;;;;;8.90;95.10;;;;;;5071781;28;19940;-87
2022/04/27 20:31:25;;;;;;;;;;;8.80;95.10;;;;;;5068816;28;19939;-87
2022/04/27 20:33:55;;;;;;;;;;;9.00;95.30;;;;;;5072034;28;19925;-88
2022/04/27 20:36:27;;;;;;;;;;;9.00;95.00;;;;;;5070922;28;19928;-88
2022/04/27 20:38:56;;;;;;;;;;;9.10;95.00;;;;;;5075462;28;20331;-87
2022/04/27 20:41:33;;;;;;;;;;;9.20;94.90;;;;;;5071020;28;19931;-87
2022/04/27 20:44:02;;;;;;;;;;;9.20;94.80;;;;;;5039358;28;19940;-89
2022/04/27 20:46:30;;;;;;;;;;;9.20;95.10;;;;;;5072757;28;19939;-88
2022/04/27 20:48:58;;;;;;;;;;;9.20;95.10;;;;;;5056364;28;19939;-88
2022/04/27 20:51:25;;;;;;;;;;;9.30;94.90;;;;;;5054426;28;19939;-87
2022/04/27 20:53:54;;;;;;;;;;;9.30;95.00;;;;;;5071117;28;19928;-88
2022/04/27 20:56:22;;;;;;;;;;;9.30;95.00;;;;;;5073683;28;19939;-88
2022/04/27 20:58:51;;;;;;;;;;;9.30;95.20;;;;;;5085290;28;20199;-86
2022/04/27 21:01:20;;;;;;;;;;;9.30;95.30;;;;;;5073191;28;19943;-86
2022/04/27 21:03:48;;;;;;;;;;;9.40;95.50;;;;;;5068785;28;19931;-88
2022/04/27 21:06:18;;;;;;;;;;;9.40;95.20;;;;;;5072317;28;20397;-87
2022/04/27 21:08:45;;;;;;;;;;;9.40;95.40;;;;;;5054512;28;19925;-86
2022/04/27 21:11:28;;;;;;;;;;;9.30;95.60;;;;;;5072893;28;20280;-87
2022/04/27 21:13:56;;;;;;;;;;;9.30;95.30;;;;;;5071540;28;19925;-86
2022/04/27 21:16:30;;;;;;;;;;;7.90;95.50;;;;;;5069796;28;20996;-87
2022/04/27 21:19:01;;;;;;;;;;;9.60;95.50;;;;;;5072913;28;19931;-87
2022/04/27 21:21:29;;;;;;;;;;;9.40;95.20;;;;;;5073728;28;19932;-87
2022/04/27 21:23:57;;;;;;;;;;;9.30;95.80;;;;;;5075418;28;20153;-86
2022/04/27 21:26:25;;;;;;;;;;;9.50;95.40;;;;;;5068117;28;19931;-87
2022/04/27 21:28:55;;;;;;;;;;;9.30;95.50;;;;;;5069130;28;19932;-87
2022/04/27 21:31:27;;;;;;;;;;;9.30;95.50;;;;;;5078300;28;19928;-87
2022/04/27 21:33:56;;;;;;;;;;;9.30;95.60;;;;;;5075267;28;20629;-89
2022/04/27 21:36:24;;;;;;;;;;;9.50;96.00;;;;;;5074880;28;19932;-87
2022/04/27 21:38:54;;;;;;;;;;;9.20;96.10;;;;;;5069824;28;19935;-86
2022/04/27 21:41:22;;;;;;;;;;;9.20;95.70;;;;;;5074647;28;19925;-87
2022/04/27 21:43:51;;;;;;;;;;;9.20;95.70;;;;;;5056114;28;19947;-88
2022/04/27 21:46:18;;;;;;;;;;;9.20;95.80;;;;;;5075087;28;19933;-86
2022/04/27 21:48:46;;;;;;;;;;;9.10;95.60;;;;;;5057843;28;19932;-86
2022/04/27 21:51:14;;;;;;;;;;;9.10;94.90;;;;;;5069845;28;19925;-86
2022/04/27 21:53:43;;;;;;;;;;;8.30;94.70;;;;;;5066506;28;19925;-87
2022/04/27 21:56:10;;;;;;;;;;;9.10;95.00;;;;;;5056538;28;19932;-86
2022/04/27 21:58:38;;;;;;;;;;;9.10;94.90;;;;;;5070961;28;20303;-88
2022/04/27 22:01:09;;;;;;;;;;;9.10;94.90;;;;;;5081300;28;19924;-88
2022/04/27 22:06:34;;;;;;;;;;;9.20;94.90;;;;;;5086862;28;19928;-88
2022/04/27 22:09:06;;;;;;;;;;;9.10;95.10;;;;;;5093244;28;20435;-86
2022/04/27 22:11:34;;;;;;;;;;;9.10;95.30;;;;;;5075672;28;20499;-86
2022/04/27 22:14:02;;;;;;;;;;;9.10;95.30;;;;;;5098666;28;20276;-87
2022/04/27 22:16:30;;;;;;;;;;;9.10;95.70;;;;;;5080245;28;19924;-88
2022/04/27 22:18:59;;;;;;;;;;;9.00;95.70;;;;;;5066003;28;19932;-87
2022/04/27 22:21:27;;;;;;;;;;;9.00;95.80;;;;;;5097035;28;19935;-87
2022/04/27 22:23:55;;;;;;;;;;;9.00;95.90;;;;;;5097075;28;19939;-88
2022/04/27 22:26:22;;;;;;;;;;;8.90;95.90;;;;;;5075557;28;19935;-87